createdAt,value
2022-08-02T00:01:47.957Z,20.00
2022-08-02T00:04:16.149Z,19.90
2022-08-02T00:06:44.720Z,19.90
2022-08-02T00:09:12.921Z,19.80
2022-08-02T00:11:43.288Z,19.80
2022-08-02T00:14:11.746Z,19.80
2022-08-02T00:16:39.962Z,19.70
2022-08-02T00:19:09.483Z,19.60
2022-08-02T00:21:37.818Z,19.60
2022-08-02T00:24:29.045Z,19.50
2022-08-02T00:26:54.828Z,19.50
2022-08-02T00:29:22.997Z,19.60
2022-08-02T00:31:51.211Z,19.50
2022-08-02T00:34:29.360Z,19.50
2022-08-02T00:37:00.131Z,19.60
2022-08-02T00:39:35.299Z,19.60
2022-08-02T00:42:04.474Z,19.60
2022-08-02T00:44:32.755Z,19.60
2022-08-02T00:47:00.945Z,19.60
2022-08-02T00:49:30.539Z,19.60
2022-08-02T00:52:01.511Z,19.50
2022-08-02T00:54:29.812Z,19.50
2022-08-02T00:56:58.075Z,19.50
2022-08-02T00:59:26.209Z,19.50
2022-08-02T01:01:57.894Z,19.40
2022-08-02T01:04:31.073Z,19.40
2022-08-02T01:07:04.059Z,19.30
2022-08-02T01:09:41.971Z,19.40
2022-08-02T01:12:11.257Z,19.30
2022-08-02T01:14:41.199Z,19.30
2022-08-02T01:17:17.359Z,19.20
2022-08-02T01:19:55.045Z,19.20
2022-08-02T01:23:04.153Z,19.20
2022-08-02T01:25:54.226Z,19.20
2022-08-02T01:28:35.791Z,19.20
2022-08-02T01:31:13.548Z,19.20
2022-08-02T01:33:45.484Z,19.20
2022-08-02T01:36:18.639Z,19.20
2022-08-02T01:38:50.188Z,19.20
2022-08-02T01:41:22.652Z,19.20
2022-08-02T01:43:56.597Z,19.30
2022-08-02T01:46:26.524Z,19.30
2022-08-02T01:48:57.396Z,19.30
2022-08-02T01:51:41.996Z,19.30
2022-08-02T01:54:13.822Z,19.30
2022-08-02T01:56:44.140Z,19.20
2022-08-02T01:59:17.641Z,19.30
2022-08-02T02:01:49.048Z,19.20
2022-08-02T02:04:18.334Z,19.20
2022-08-02T02:06:47.838Z,19.20
2022-08-02T02:09:17.248Z,19.10
2022-08-02T02:12:11.505Z,19.10
2022-08-02T02:14:38.468Z,19.20
2022-08-02T02:17:07.746Z,19.10
2022-08-02T02:19:38.047Z,19.00
2022-08-02T02:22:06.849Z,19.00
2022-08-02T02:24:35.882Z,19.00
2022-08-02T02:27:07.720Z,19.00
2022-08-02T02:29:39.782Z,19.00
2022-08-02T02:32:08.397Z,19.00
2022-08-02T02:34:42.149Z,19.00
2022-08-02T02:37:15.083Z,18.90
2022-08-02T02:39:45.139Z,18.90
2022-08-02T02:42:17.018Z,18.90
2022-08-02T02:44:47.870Z,18.90
2022-08-02T02:47:17.950Z,18.90
2022-08-02T02:49:48.122Z,18.90
2022-08-02T02:52:18.012Z,18.90
2022-08-02T02:54:50.022Z,18.90
2022-08-02T02:57:20.924Z,18.80
2022-08-02T02:59:50.642Z,18.80
2022-08-02T03:02:19.804Z,18.80
2022-08-02T03:04:57.340Z,18.70
2022-08-02T03:07:27.162Z,18.70
2022-08-02T03:09:55.572Z,18.70
2022-08-02T03:12:31.000Z,18.70
2022-08-02T03:15:04.011Z,18.70
2022-08-02T03:17:42.728Z,18.70
2022-08-02T03:20:13.314Z,18.60
2022-08-02T03:22:42.223Z,18.60
2022-08-02T03:25:11.533Z,18.70
2022-08-02T03:27:40.249Z,18.70
2022-08-02T03:30:12.752Z,18.70
2022-08-02T03:32:43.098Z,18.70
2022-08-02T03:35:16.608Z,18.60
2022-08-02T03:37:47.954Z,18.70
2022-08-02T03:40:16.647Z,18.60
2022-08-02T03:42:45.315Z,18.60
2022-08-02T03:45:15.178Z,18.60
2022-08-02T03:47:44.612Z,18.60
2022-08-02T03:50:14.221Z,18.60
2022-08-02T03:52:45.178Z,18.50
2022-08-02T03:55:14.230Z,18.50
2022-08-02T03:57:43.950Z,18.50
2022-08-02T04:00:18.996Z,18.50
2022-08-02T04:02:47.737Z,18.50
2022-08-02T04:05:17.290Z,18.50
2022-08-02T04:08:02.416Z,18.50
2022-08-02T04:10:54.755Z,18.50
2022-08-02T04:13:25.586Z,18.50
2022-08-02T04:16:03.736Z,18.50
2022-08-02T04:18:37.242Z,18.50
2022-08-02T04:21:07.473Z,18.50
2022-08-02T04:23:37.921Z,18.40
2022-08-02T04:26:08.647Z,18.40
2022-08-02T04:28:39.540Z,18.40
2022-08-02T04:31:09.582Z,18.40
2022-08-02T04:33:38.874Z,18.50
2022-08-02T04:36:07.811Z,18.50
2022-08-02T04:38:36.288Z,18.50
2022-08-02T04:41:04.497Z,18.50
2022-08-02T04:43:32.746Z,18.60
2022-08-02T04:46:02.866Z,18.60
2022-08-02T04:48:32.471Z,18.60
2022-08-02T04:51:01.334Z,18.50
2022-08-02T04:53:29.649Z,18.50
2022-08-02T04:55:57.891Z,18.50
2022-08-02T04:58:41.765Z,18.50
2022-08-02T05:01:10.061Z,18.40
2022-08-02T05:03:39.662Z,18.40
2022-08-02T05:06:19.307Z,18.40
2022-08-02T05:08:53.225Z,18.30
2022-08-02T05:11:22.368Z,18.30
2022-08-02T05:14:02.476Z,18.10
2022-08-02T05:16:31.858Z,18.10
2022-08-02T05:19:02.810Z,18.10
2022-08-02T05:21:31.420Z,18.10
2022-08-02T05:23:59.737Z,18.10
2022-08-02T05:26:27.951Z,18.20
2022-08-02T05:28:56.058Z,18.30
2022-08-02T05:31:24.228Z,18.30
2022-08-02T05:33:53.021Z,18.30
2022-08-02T05:36:22.610Z,18.40
2022-08-02T05:38:51.756Z,18.40
2022-08-02T05:41:20.268Z,18.40
2022-08-02T05:43:48.877Z,18.50
2022-08-02T05:46:17.072Z,18.50
2022-08-02T05:48:45.623Z,18.50
2022-08-02T05:51:20.524Z,18.50
2022-08-02T05:53:55.320Z,18.60
2022-08-02T05:56:33.874Z,18.60
2022-08-02T05:59:05.404Z,18.70
2022-08-02T06:01:36.682Z,18.70
2022-08-02T06:04:08.143Z,18.70
2022-08-02T06:06:37.194Z,18.80
2022-08-02T06:09:15.430Z,18.90
2022-08-02T06:12:01.732Z,19.00
2022-08-02T06:14:33.473Z,19.00
2022-08-02T06:17:05.188Z,19.20
2022-08-02T06:19:48.870Z,19.30
2022-08-02T06:22:41.685Z,19.30
2022-08-02T06:25:48.502Z,19.50
2022-08-02T06:28:01.087Z,19.60
2022-08-02T06:30:30.462Z,19.80
2022-08-02T06:33:01.668Z,19.90
2022-08-02T06:35:36.334Z,20.00
2022-08-02T06:38:05.377Z,20.10
2022-08-02T06:40:43.582Z,20.20
2022-08-02T06:43:14.318Z,20.30
2022-08-02T06:45:42.652Z,20.40
2022-08-02T06:48:10.913Z,20.40
2022-08-02T06:50:39.756Z,20.50
2022-08-02T06:53:08.906Z,20.50
2022-08-02T06:55:43.490Z,20.50
2022-08-02T06:58:13.440Z,20.50
2022-08-02T07:00:43.160Z,20.50
2022-08-02T07:03:11.413Z,20.60
2022-08-02T07:05:39.863Z,20.70
2022-08-02T07:08:08.564Z,20.70
2022-08-02T07:10:38.181Z,20.70
2022-08-02T07:13:06.351Z,20.80
2022-08-02T07:15:34.518Z,20.80
2022-08-02T07:18:02.701Z,20.90
2022-08-02T07:20:30.858Z,21.00
2022-08-02T07:22:59.019Z,21.10
2022-08-02T07:25:27.259Z,21.20
2022-08-02T07:28:24.059Z,21.30
2022-08-02T07:30:53.429Z,21.40
2022-08-02T07:33:38.148Z,21.50
2022-08-02T07:36:16.964Z,21.60
2022-08-02T07:38:51.115Z,21.70
2022-08-02T07:41:21.450Z,21.80
2022-08-02T07:43:52.704Z,21.80
2022-08-02T07:46:20.882Z,21.90
2022-08-02T07:48:49.369Z,21.90
2022-08-02T07:51:17.645Z,22.00
2022-08-02T07:53:50.723Z,21.90
2022-08-02T07:56:19.937Z,21.90
2022-08-02T07:58:48.097Z,21.90
2022-08-02T08:01:18.448Z,21.90
2022-08-02T08:03:47.156Z,22.00
2022-08-02T08:06:15.864Z,22.10
2022-08-02T08:08:44.515Z,22.10
2022-08-02T08:11:12.853Z,22.20
2022-08-02T08:13:41.018Z,22.30
2022-08-02T08:16:09.191Z,22.30
2022-08-02T08:18:38.855Z,22.40
2022-08-02T08:21:07.236Z,22.50
2022-08-02T08:23:36.164Z,22.50
2022-08-02T08:26:04.417Z,22.60
2022-08-02T08:28:33.984Z,22.60
2022-08-02T08:31:02.544Z,22.70
2022-08-02T08:33:30.917Z,22.80
2022-08-02T08:36:02.513Z,22.90
2022-08-02T08:38:30.975Z,23.00
2022-08-02T08:40:59.233Z,23.10
2022-08-02T08:43:27.456Z,23.20
2022-08-02T08:45:56.822Z,23.30
2022-08-02T08:48:30.923Z,23.40
2022-08-02T08:51:08.708Z,23.50
2022-08-02T08:53:41.607Z,23.50
2022-08-02T08:56:16.044Z,23.60
2022-08-02T08:58:45.665Z,23.60
2022-08-02T09:01:15.287Z,23.60
2022-08-02T09:03:44.058Z,23.70
2022-08-02T09:06:13.568Z,23.70
2022-08-02T09:08:41.782Z,23.80
2022-08-02T09:11:17.356Z,23.80
2022-08-02T09:13:53.240Z,24.00
2022-08-02T09:16:33.115Z,24.00
2022-08-02T09:19:02.553Z,24.10
2022-08-02T09:21:38.761Z,24.20
2022-08-02T09:24:18.308Z,24.30
2022-08-02T09:26:47.162Z,24.30
2022-08-02T09:29:16.606Z,24.40
2022-08-02T09:31:49.552Z,24.50
2022-08-02T09:34:19.913Z,24.50
2022-08-02T09:36:54.648Z,24.50
2022-08-02T09:39:26.357Z,24.50
2022-08-02T09:42:08.277Z,24.50
2022-08-02T09:44:36.579Z,24.60
2022-08-02T09:47:16.567Z,24.70
2022-08-02T09:49:52.407Z,24.80
2022-08-02T09:52:43.316Z,24.80
2022-08-02T09:55:12.812Z,24.90
2022-08-02T09:57:41.091Z,24.90
2022-08-02T10:00:16.216Z,24.90
2022-08-02T10:03:08.374Z,24.90
2022-08-02T10:05:55.496Z,24.90
2022-08-02T10:08:26.840Z,24.90
2022-08-02T10:11:01.353Z,25.00
2022-08-02T10:13:31.231Z,25.10
2022-08-02T10:15:59.898Z,25.20
2022-08-02T10:18:38.630Z,25.40
2022-08-02T10:21:11.313Z,25.50
2022-08-02T10:23:43.513Z,25.50
2022-08-02T10:26:16.020Z,25.60
2022-08-02T10:28:47.565Z,25.70
2022-08-02T10:31:20.175Z,25.90
2022-08-02T10:33:50.774Z,26.00
2022-08-02T10:36:20.331Z,25.80
2022-08-02T10:38:50.553Z,25.90
2022-08-02T10:41:44.298Z,26.00
2022-08-02T10:44:24.398Z,26.00
2022-08-02T10:46:53.749Z,26.20
2022-08-02T10:49:39.117Z,26.40
2022-08-02T10:52:10.870Z,26.40
2022-08-02T10:54:43.099Z,26.40
2022-08-02T10:57:19.841Z,26.60
2022-08-02T10:59:48.643Z,26.70
2022-08-02T11:02:38.955Z,26.80
2022-08-02T11:05:18.481Z,26.80
2022-08-02T11:07:49.604Z,26.80
2022-08-02T11:10:40.552Z,26.90
2022-08-02T11:13:11.571Z,27.00
2022-08-02T11:15:55.295Z,27.00
2022-08-02T11:18:24.603Z,27.00
2022-08-02T11:21:32.495Z,27.00
2022-08-02T11:24:29.304Z,27.10
2022-08-02T11:27:00.096Z,27.40
2022-08-02T11:29:39.838Z,27.80
2022-08-02T11:32:10.251Z,28.00
2022-08-02T11:34:40.572Z,28.30
2022-08-02T11:37:08.784Z,29.40
2022-08-02T11:39:37.114Z,29.70
2022-08-02T11:42:06.981Z,29.70
2022-08-02T11:44:42.103Z,28.90
2022-08-02T11:47:10.409Z,28.50
2022-08-02T11:49:39.257Z,28.50
2022-08-02T11:52:10.923Z,28.60
2022-08-02T11:54:41.304Z,28.70
2022-08-02T11:57:20.884Z,29.40
2022-08-02T11:59:51.530Z,29.80
2022-08-02T12:02:20.788Z,30.40
2022-08-02T12:04:57.965Z,29.80
2022-08-02T12:07:34.849Z,30.00
2022-08-02T12:10:07.324Z,30.10
2022-08-02T12:12:49.043Z,30.00
2022-08-02T12:15:30.090Z,29.60
2022-08-02T12:18:16.131Z,29.20
2022-08-02T12:20:44.614Z,28.90
2022-08-02T12:23:12.979Z,28.80
2022-08-02T12:25:41.425Z,28.70
2022-08-02T12:28:20.417Z,28.30
2022-08-02T12:30:53.669Z,28.30
2022-08-02T12:33:22.635Z,28.40
2022-08-02T12:35:51.079Z,28.40
2022-08-02T12:38:19.217Z,28.60
2022-08-02T12:40:47.819Z,28.30
2022-08-02T12:43:22.013Z,28.60
2022-08-02T12:45:52.969Z,29.10
2022-08-02T12:48:38.307Z,29.40
2022-08-02T12:51:24.156Z,29.50
2022-08-02T12:53:59.570Z,29.50
2022-08-02T12:56:30.338Z,29.40
2022-08-02T12:59:00.096Z,29.50
2022-08-02T13:01:29.188Z,29.70
2022-08-02T13:04:11.901Z,29.80
2022-08-02T13:06:44.462Z,30.00
2022-08-02T13:09:15.250Z,29.80
2022-08-02T13:11:44.478Z,29.60
2022-08-02T13:14:15.034Z,29.20
2022-08-02T13:16:44.792Z,29.40
2022-08-02T13:19:15.191Z,29.40
2022-08-02T13:22:02.106Z,29.40
2022-08-02T13:24:40.473Z,29.30
2022-08-02T13:27:21.675Z,29.40
2022-08-02T13:29:52.027Z,29.90
2022-08-02T13:32:20.709Z,30.00
2022-08-02T13:34:49.281Z,30.40
2022-08-02T13:37:18.563Z,30.20
2022-08-02T13:40:05.630Z,30.20
2022-08-02T13:42:35.107Z,29.60
2022-08-02T13:45:12.721Z,29.50
2022-08-02T13:48:04.028Z,29.10
2022-08-02T13:50:31.901Z,29.30
2022-08-02T13:53:00.088Z,29.60
2022-08-02T13:55:28.296Z,29.70
2022-08-02T13:57:56.628Z,30.10
2022-08-02T14:00:34.615Z,30.10
2022-08-02T14:03:06.777Z,30.10
2022-08-02T14:05:47.793Z,30.00
2022-08-02T14:08:17.926Z,30.20
2022-08-02T14:10:46.977Z,30.50
2022-08-02T14:13:15.721Z,30.50
2022-08-02T14:15:45.705Z,30.30
2022-08-02T14:18:15.238Z,30.20
2022-08-02T14:20:43.760Z,30.30
2022-08-02T14:23:12.159Z,30.70
2022-08-02T14:25:40.842Z,30.70
2022-08-02T14:28:09.206Z,30.60
2022-08-02T14:30:37.555Z,30.30
2022-08-02T14:33:07.308Z,29.90
2022-08-02T14:35:35.838Z,29.90
2022-08-02T14:38:04.259Z,29.70
2022-08-02T14:40:32.457Z,29.90
2022-08-02T14:43:01.228Z,30.30
2022-08-02T14:45:40.529Z,30.50
2022-08-02T14:48:15.392Z,30.90
2022-08-02T14:50:43.527Z,31.20
2022-08-02T14:53:12.826Z,31.40
2022-08-02T14:55:42.855Z,30.90
2022-08-02T14:58:11.338Z,30.90
2022-08-02T15:00:41.325Z,31.10
2022-08-02T15:03:12.120Z,31.20
2022-08-02T15:05:40.672Z,31.40
2022-08-02T15:08:09.123Z,31.50
2022-08-02T15:10:37.499Z,31.10
2022-08-02T15:13:05.745Z,31.00
2022-08-02T15:15:43.366Z,30.80
2022-08-02T15:18:14.210Z,30.80
2022-08-02T15:20:50.077Z,30.80
2022-08-02T15:23:37.188Z,31.40
2022-08-02T15:26:07.617Z,31.60
2022-08-02T15:28:36.292Z,31.90
2022-08-02T15:31:04.503Z,32.10
2022-08-02T15:33:34.145Z,32.30
2022-08-02T15:36:02.459Z,32.10
2022-08-02T15:38:30.723Z,31.80
2022-08-02T15:40:59.255Z,31.50
2022-08-02T15:43:27.588Z,31.10
2022-08-02T15:45:55.959Z,30.60
2022-08-02T15:48:24.234Z,30.30
2022-08-02T15:50:53.725Z,30.10
2022-08-02T15:53:21.985Z,29.90
2022-08-02T15:56:04.085Z,29.90
2022-08-02T15:58:33.534Z,29.90
2022-08-02T16:01:04.584Z,29.80
2022-08-02T16:03:32.847Z,29.70
2022-08-02T16:06:02.430Z,29.70
2022-08-02T16:08:30.736Z,29.70
2022-08-02T16:10:58.897Z,29.60
2022-08-02T16:13:52.829Z,29.60
2022-08-02T16:16:22.805Z,29.50
2022-08-02T16:18:51.414Z,29.50
2022-08-02T16:21:22.711Z,29.40
2022-08-02T16:23:58.986Z,29.40
2022-08-02T16:26:31.948Z,29.20
2022-08-02T16:29:01.811Z,29.10
2022-08-02T16:31:30.305Z,28.90
2022-08-02T16:33:58.686Z,28.80
2022-08-02T16:36:28.428Z,28.80
2022-08-02T16:38:56.865Z,28.90
2022-08-02T16:41:51.728Z,29.00
2022-08-02T16:44:13.558Z,29.00
2022-08-02T16:46:42.093Z,29.10
2022-08-02T16:50:06.796Z,29.10
2022-08-02T16:52:03.548Z,29.20
2022-08-02T16:54:31.866Z,29.30
2022-08-02T16:57:00.076Z,29.40
2022-08-02T16:59:41.870Z,29.60
2022-08-02T17:02:18.001Z,29.80
2022-08-02T17:04:48.268Z,30.10
2022-08-02T17:08:07.671Z,30.20
2022-08-02T17:10:09.776Z,30.30
2022-08-02T17:12:38.895Z,30.10
2022-08-02T17:16:07.806Z,30.10
2022-08-02T17:17:57.572Z,30.30
2022-08-02T17:20:26.135Z,30.30
2022-08-02T17:22:55.987Z,30.20
2022-08-02T17:25:31.832Z,30.10
2022-08-02T17:28:00.331Z,29.90
2022-08-02T17:30:29.514Z,29.80
2022-08-02T17:32:59.477Z,29.70
2022-08-02T17:35:43.199Z,29.50
2022-08-02T17:38:26.113Z,29.50
2022-08-02T17:40:55.575Z,29.40
2022-08-02T17:43:29.327Z,29.30
2022-08-02T17:46:02.069Z,29.10
2022-08-02T17:48:54.984Z,28.90
2022-08-02T17:52:16.133Z,28.70
2022-08-02T17:54:14.457Z,28.60
2022-08-02T17:56:47.724Z,28.50
2022-08-02T17:59:20.128Z,28.40
2022-08-02T18:01:53.140Z,28.30
2022-08-02T18:04:26.964Z,28.30
2022-08-02T18:06:57.543Z,28.10
2022-08-02T18:09:28.588Z,28.00
2022-08-02T18:11:58.840Z,27.90
2022-08-02T18:14:27.174Z,27.80
2022-08-02T18:16:55.701Z,27.70
2022-08-02T18:19:23.815Z,27.60
2022-08-02T18:22:10.822Z,27.60
2022-08-02T18:24:41.494Z,27.40
2022-08-02T18:27:12.941Z,27.40
2022-08-02T18:29:41.308Z,27.30
2022-08-02T18:32:11.661Z,27.30
2022-08-02T18:34:40.143Z,27.20
2022-08-02T18:37:08.386Z,27.20
2022-08-02T18:39:38.513Z,27.10
2022-08-02T18:42:08.271Z,27.10
2022-08-02T18:44:38.761Z,27.00
2022-08-02T18:47:07.691Z,27.00
2022-08-02T18:49:46.803Z,26.90
2022-08-02T18:52:17.647Z,26.80
2022-08-02T18:55:00.047Z,26.80
2022-08-02T18:58:02.488Z,26.70
2022-08-02T19:00:20.657Z,26.70
2022-08-02T19:02:54.929Z,26.60
2022-08-02T19:05:24.097Z,26.50
2022-08-02T19:08:12.810Z,26.40
2022-08-02T19:10:49.197Z,26.30
2022-08-02T19:13:19.521Z,26.30
2022-08-02T19:15:48.493Z,26.20
2022-08-02T19:18:16.982Z,26.20
2022-08-02T19:20:48.228Z,26.10
2022-08-02T19:23:17.343Z,26.00
2022-08-02T19:25:50.267Z,26.00
2022-08-02T19:28:26.369Z,25.90
2022-08-02T19:30:54.980Z,25.80
2022-08-02T19:33:54.814Z,25.70
2022-08-02T19:36:11.963Z,25.60
2022-08-02T19:41:28.700Z,25.60
2022-08-02T19:44:23.386Z,25.60
2022-08-02T19:46:56.108Z,25.50
2022-08-02T19:49:39.614Z,25.40
2022-08-02T19:52:20.387Z,25.40
2022-08-02T19:54:55.357Z,25.30
2022-08-02T19:57:24.985Z,25.30
2022-08-02T19:59:55.246Z,25.30
2022-08-02T20:02:23.555Z,25.20
2022-08-02T20:04:53.006Z,25.20
2022-08-02T20:07:56.135Z,25.10
2022-08-02T20:10:12.086Z,25.10
2022-08-02T20:12:41.449Z,25.00
2022-08-02T20:15:14.754Z,25.00
2022-08-02T20:17:47.676Z,25.00
2022-08-02T20:20:18.333Z,24.90
2022-08-02T20:23:32.969Z,24.90
2022-08-02T20:25:54.219Z,24.90
2022-08-02T20:28:23.252Z,24.90
2022-08-02T20:30:52.910Z,24.90
2022-08-02T20:33:23.913Z,24.80
2022-08-02T20:35:53.312Z,24.80
2022-08-02T20:38:24.946Z,24.80
2022-08-02T20:40:56.445Z,24.70
2022-08-02T20:43:31.070Z,24.70
2022-08-02T20:46:01.406Z,24.60
2022-08-02T20:48:30.582Z,24.60
2022-08-02T20:50:59.405Z,24.60
2022-08-02T20:53:31.303Z,24.50
2022-08-02T20:56:00.255Z,24.50
2022-08-02T20:58:28.835Z,24.50
2022-08-02T21:01:00.713Z,24.40
2022-08-02T21:03:32.532Z,24.40
2022-08-02T21:06:09.403Z,24.30
2022-08-02T21:08:38.204Z,24.30
2022-08-02T21:11:09.188Z,24.30
2022-08-02T21:13:47.391Z,24.20
2022-08-02T21:16:27.683Z,24.20
2022-08-02T21:19:00.193Z,24.20
2022-08-02T21:21:29.718Z,24.20
2022-08-02T21:23:59.108Z,24.10
2022-08-02T21:26:30.546Z,24.10
2022-08-02T21:29:03.454Z,24.10
2022-08-02T21:31:36.606Z,24.00
2022-08-02T21:34:21.828Z,24.00
2022-08-02T21:36:51.095Z,23.90
2022-08-02T21:39:20.537Z,23.90
2022-08-02T21:41:49.098Z,23.90
2022-08-02T21:44:18.510Z,23.80
2022-08-02T21:46:50.080Z,23.80
2022-08-02T21:49:18.798Z,23.80
2022-08-02T21:51:49.353Z,23.80
2022-08-02T21:54:21.144Z,23.80
2022-08-02T21:56:52.754Z,23.70
2022-08-02T21:59:26.295Z,23.70
2022-08-02T22:01:57.752Z,23.60
2022-08-02T22:04:26.556Z,23.60
2022-08-02T22:06:55.426Z,23.50
2022-08-02T22:09:44.148Z,23.50
2022-08-02T22:12:16.841Z,23.50
2022-08-02T22:14:49.772Z,23.40
2022-08-02T22:17:51.095Z,23.30
2022-08-02T22:20:14.541Z,23.30
2022-08-02T22:22:43.836Z,23.20
2022-08-02T22:25:27.340Z,23.20
2022-08-02T22:28:11.778Z,23.20
2022-08-02T22:30:51.169Z,23.10
2022-08-02T22:33:46.611Z,23.10
2022-08-02T22:36:15.475Z,23.10
2022-08-02T22:38:44.387Z,23.10
2022-08-02T22:41:13.479Z,23.10
2022-08-02T22:43:42.134Z,23.10
2022-08-02T22:46:10.527Z,23.20
2022-08-02T22:48:45.692Z,23.20
2022-08-02T22:51:14.731Z,23.20
2022-08-02T22:53:44.299Z,23.10
2022-08-02T22:56:15.474Z,23.10
2022-08-02T22:59:07.446Z,25.60
2022-08-02T23:01:32.775Z,23.10
2022-08-02T23:04:02.318Z,23.10
2022-08-02T23:06:30.489Z,23.00
2022-08-02T23:08:58.694Z,22.90
2022-08-02T23:11:27.147Z,22.90
2022-08-02T23:13:55.279Z,22.80
2022-08-02T23:16:41.113Z,22.70
2022-08-02T23:19:29.450Z,22.60
2022-08-02T23:22:02.757Z,22.50
2022-08-02T23:24:33.228Z,22.30
2022-08-02T23:27:02.136Z,22.20
2022-08-02T23:29:30.320Z,22.20
2022-08-02T23:31:58.962Z,22.10
2022-08-02T23:34:28.838Z,22.00
2022-08-02T23:36:57.164Z,22.00
2022-08-02T23:39:25.454Z,22.00
2022-08-02T23:41:55.133Z,21.90
2022-08-02T23:44:24.644Z,21.90
2022-08-02T23:46:53.715Z,21.90
2022-08-02T23:49:22.477Z,21.90
2022-08-02T23:51:52.393Z,21.90
2022-08-02T23:54:21.568Z,21.90
2022-08-02T23:56:49.745Z,21.90
2022-08-02T23:59:18.385Z,21.80
